Clovis, NM

6:37 PM MDT on September 02, 2014 (GMT -0600)
Hereford Municipal | Change Station
CLOSE
Current Station
Airport
Location: Hereford,
Elevation: 3786 ft
Nearby Weather Stations

Elev 3786 ft 34.86 °N, 102.33 °W | Updated 9 hours ago

Clear
Clear
86 °F
Feels Like 86 °F
N
11
Wind Variable Wind from South
Gusts 11 mph

Today
High -- | Low -- °F
--% Chance of Precip.
Yesterday
High -- | Low -- °F
Precip. -- in
6:26 AM 7:17 PM
First Quarter, 56% visible
Pressure 30.05 in
Visibility 10.0 miles
Clouds Clear
Dew Point 48 °F
Humidity 28%
Rainfall 0.00 in
Snow Depth Not available.
UV 5 out of 12
Pollen 10.40 out of 12
Air Quality Not available.
Flu Activity Not available.
METAR KHRX 021535Z AUTO 36008KT 10SM CLR 25/19 A3005 RMK AO2 T02530185

More Conditions Fewer Conditions

Pressure 30.05 in
Visibility 10.0 miles
Clouds Clear
Dew Point 48 °F
Humidity 28%
Rainfall 0.00 in
Snow Depth Not available.
UV 5 out of 12
Pollen 10.40 out of 12
Air Quality Not available.
Flu Activity Not available.
METAR KHRX 021535Z AUTO 36008KT 10SM CLR 25/19 A3005 RMK AO2 T02530185

More Conditions Fewer Conditions

10-Day Weather Forecast

Almanac

Astronomy

Sep. 02, 2014 Rise Set
Actual Time 6:26 AM MDT 7:17 PM MDT
Civil Twilight 6:01 AM MDT 7:43 PM MDT
Nautical Twilight 5:31 AM MDT 8:13 PM MDT
Astronomical Twilight 4:59 AM MDT 8:44 PM MDT
Moon 1:55 PM MDT (9/2) No Moon Set
Length of Visible Light 13h 41m
Length of Day
12h 50m
Tomorrow will be 2m 3s shorter.
First Quarter, 56% of the Moon is Illuminated
Today
First Quarter
Sep 8
Full
Sep 15
Last Quarter
Sep 24
New
Oct 1
First Quarter

Today's Extremes

State Highs State Lows

Community

WunderPhotos

Upload Photos

1,749,812 photos uploaded!

Nearby

Snow Depth

Station Depth Elevation
Wesner Springs 1 in 11120 ft
Sierra Blanca 1 in 10280 ft
Santa Fe 0 in 11445 ft
Tolby 0 in 10180 ft
Quemazon 0 in 9500 ft

Earthquake Activity

City Distance Mag. Time & Date
No recent earthquake activity has been reported nearby.
Minimum magnitude displayed is 2.5.

Coastal Water Temperatures

Place Temperature
No Stations Reporting

Nearby Weather Stations